sensor_id;sensor_type;location;lat;lon;timestamp;pressure;altitude;pressure_sealevel;temperature;humidity
77019;BME280;66044;53.142;17.962;2023-06-14T00:02:17;101347.61;;;15.33;59.66
77019;BME280;66044;53.142;17.962;2023-06-14T00:04:44;101348.96;;;15.31;59.64
77019;BME280;66044;53.142;17.962;2023-06-14T00:07:11;101345.80;;;15.29;59.51
77019;BME280;66044;53.142;17.962;2023-06-14T00:09:39;101349.43;;;15.29;59.48
77019;BME280;66044;53.142;17.962;2023-06-14T00:12:07;101344.95;;;15.31;59.68
77019;BME280;66044;53.142;17.962;2023-06-14T00:14:34;101339.86;;;15.32;59.31
77019;BME280;66044;53.142;17.962;2023-06-14T00:17:01;101336.15;;;15.35;59.48
77019;BME280;66044;53.142;17.962;2023-06-14T00:19:29;101334.04;;;15.37;59.07
77019;BME280;66044;53.142;17.962;2023-06-14T00:21:59;101338.77;;;15.37;59.18
77019;BME280;66044;53.142;17.962;2023-06-14T00:24:25;101336.52;;;15.37;59.02
77019;BME280;66044;53.142;17.962;2023-06-14T00:26:52;101333.77;;;15.36;58.89
77019;BME280;66044;53.142;17.962;2023-06-14T00:29:18;101337.11;;;15.33;59.19
77019;BME280;66044;53.142;17.962;2023-06-14T00:31:44;101336.88;;;15.33;59.17
77019;BME280;66044;53.142;17.962;2023-06-14T00:34:11;101335.77;;;15.32;59.00
77019;BME280;66044;53.142;17.962;2023-06-14T00:36:37;101333.92;;;15.33;59.13
77019;BME280;66044;53.142;17.962;2023-06-14T00:39:04;101331.35;;;15.32;59.35
77019;BME280;66044;53.142;17.962;2023-06-14T00:41:30;101331.45;;;15.32;59.16
77019;BME280;66044;53.142;17.962;2023-06-14T00:43:57;101322.52;;;15.32;59.38
77019;BME280;66044;53.142;17.962;2023-06-14T00:46:23;101323.79;;;15.33;59.22
77019;BME280;66044;53.142;17.962;2023-06-14T00:48:50;101319.84;;;15.32;59.19
77019;BME280;66044;53.142;17.962;2023-06-14T00:51:16;101316.30;;;15.34;59.08
77019;BME280;66044;53.142;17.962;2023-06-14T00:53:44;101316.63;;;15.35;59.28
77019;BME280;66044;53.142;17.962;2023-06-14T00:56:14;101309.61;;;15.35;59.32
77019;BME280;66044;53.142;17.962;2023-06-14T00:58:41;101310.26;;;15.36;59.29
77019;BME280;66044;53.142;17.962;2023-06-14T01:01:08;101307.57;;;15.36;59.39
77019;BME280;66044;53.142;17.962;2023-06-14T01:03:34;101304.61;;;15.36;59.59
77019;BME280;66044;53.142;17.962;2023-06-14T01:06:13;101306.98;;;15.35;59.60
77019;BME280;66044;53.142;17.962;2023-06-14T01:08:51;101308.06;;;15.35;59.67
77019;BME280;66044;53.142;17.962;2023-06-14T01:11:28;101302.52;;;15.36;59.51
77019;BME280;66044;53.142;17.962;2023-06-14T01:13:59;101297.73;;;15.36;59.53
77019;BME280;66044;53.142;17.962;2023-06-14T01:16:29;101295.10;;;15.36;59.60
77019;BME280;66044;53.142;17.962;2023-06-14T01:18:57;101293.67;;;15.35;59.58
77019;BME280;66044;53.142;17.962;2023-06-14T01:21:25;101290.85;;;15.33;59.70
77019;BME280;66044;53.142;17.962;2023-06-14T01:23:52;101284.80;;;15.30;59.73
77019;BME280;66044;53.142;17.962;2023-06-14T01:26:20;101280.19;;;15.26;59.76
77019;BME280;66044;53.142;17.962;2023-06-14T01:28:49;101280.92;;;15.24;59.83
77019;BME280;66044;53.142;17.962;2023-06-14T01:31:20;101277.70;;;15.23;59.84
77019;BME280;66044;53.142;17.962;2023-06-14T01:33:51;101282.70;;;15.22;59.86
77019;BME280;66044;53.142;17.962;2023-06-14T01:36:22;101282.20;;;15.21;60.05
77019;BME280;66044;53.142;17.962;2023-06-14T01:38:50;101281.77;;;15.20;60.03
77019;BME280;66044;53.142;17.962;2023-06-14T01:41:19;101283.31;;;15.19;59.94
77019;BME280;66044;53.142;17.962;2023-06-14T01:43:48;101282.30;;;15.19;59.96
77019;BME280;66044;53.142;17.962;2023-06-14T01:46:16;101277.96;;;15.19;60.01
77019;BME280;66044;53.142;17.962;2023-06-14T01:48:43;101276.64;;;15.18;59.86
77019;BME280;66044;53.142;17.962;2023-06-14T01:51:10;101277.18;;;15.19;60.01
77019;BME280;66044;53.142;17.962;2023-06-14T01:53:36;101274.06;;;15.17;59.86
77019;BME280;66044;53.142;17.962;2023-06-14T01:56:03;101277.06;;;15.17;59.96
77019;BME280;66044;53.142;17.962;2023-06-14T01:58:29;101274.27;;;15.16;60.00
77019;BME280;66044;53.142;17.962;2023-06-14T02:00:56;101272.23;;;15.15;59.92
77019;BME280;66044;53.142;17.962;2023-06-14T02:03:22;101268.64;;;15.15;59.79
77019;BME280;66044;53.142;17.962;2023-06-14T02:05:50;101264.13;;;15.14;59.96
77019;BME280;66044;53.142;17.962;2023-06-14T02:08:16;101264.84;;;15.11;60.03
77019;BME280;66044;53.142;17.962;2023-06-14T02:10:43;101263.36;;;15.08;60.02
77019;BME280;66044;53.142;17.962;2023-06-14T02:13:09;101266.63;;;15.06;60.02
77019;BME280;66044;53.142;17.962;2023-06-14T02:15:36;101268.52;;;15.05;59.97
77019;BME280;66044;53.142;17.962;2023-06-14T02:18:03;101266.34;;;15.04;60.27
77019;BME280;66044;53.142;17.962;2023-06-14T02:20:30;101271.02;;;15.03;60.25
77019;BME280;66044;53.142;17.962;2023-06-14T02:22:57;101270.55;;;15.03;60.53
77019;BME280;66044;53.142;17.962;2023-06-14T02:25:24;101266.35;;;15.02;60.51
77019;BME280;66044;53.142;17.962;2023-06-14T02:27:51;101269.78;;;15.03;60.39
77019;BME280;66044;53.142;17.962;2023-06-14T02:30:17;101270.86;;;15.03;60.48
77019;BME280;66044;53.142;17.962;2023-06-14T02:32:44;101269.89;;;15.02;60.51
77019;BME280;66044;53.142;17.962;2023-06-14T02:35:10;101272.19;;;15.01;60.54
77019;BME280;66044;53.142;17.962;2023-06-14T02:37:37;101280.26;;;15.00;60.41
77019;BME280;66044;53.142;17.962;2023-06-14T02:40:04;101278.61;;;14.96;60.51
77019;BME280;66044;53.142;17.962;2023-06-14T02:42:33;101274.48;;;14.95;60.60
77019;BME280;66044;53.142;17.962;2023-06-14T02:44:59;101274.45;;;14.94;60.71
77019;BME280;66044;53.142;17.962;2023-06-14T02:47:26;101277.15;;;14.92;60.76
77019;BME280;66044;53.142;17.962;2023-06-14T02:49:53;101273.21;;;14.87;61.13
77019;BME280;66044;53.142;17.962;2023-06-14T02:52:19;101265.40;;;14.82;61.37
77019;BME280;66044;53.142;17.962;2023-06-14T02:54:46;101259.34;;;14.80;61.33
77019;BME280;66044;53.142;17.962;2023-06-14T02:57:14;101256.02;;;14.80;61.57
77019;BME280;66044;53.142;17.962;2023-06-14T02:59:41;101256.14;;;14.79;61.54
77019;BME280;66044;53.142;17.962;2023-06-14T03:02:07;101252.91;;;14.80;61.67
77019;BME280;66044;53.142;17.962;2023-06-14T03:04:34;101249.23;;;14.80;61.66
77019;BME280;66044;53.142;17.962;2023-06-14T03:07:04;101248.64;;;14.82;61.66
77019;BME280;66044;53.142;17.962;2023-06-14T03:09:37;101249.67;;;14.83;61.62
77019;BME280;66044;53.142;17.962;2023-06-14T03:12:05;101249.70;;;14.84;61.56
77019;BME280;66044;53.142;17.962;2023-06-14T03:14:33;101247.17;;;14.85;61.55
77019;BME280;66044;53.142;17.962;2023-06-14T03:17:01;101247.31;;;14.84;61.68
77019;BME280;66044;53.142;17.962;2023-06-14T03:19:28;101245.64;;;14.83;61.72
77019;BME280;66044;53.142;17.962;2023-06-14T03:21:55;101241.81;;;14.81;61.73
77019;BME280;66044;53.142;17.962;2023-06-14T03:24:26;101241.29;;;14.79;61.89
77019;BME280;66044;53.142;17.962;2023-06-14T03:26:58;101243.92;;;14.77;61.93
77019;BME280;66044;53.142;17.962;2023-06-14T03:29:24;101246.56;;;14.75;62.08
77019;BME280;66044;53.142;17.962;2023-06-14T03:32:00;101246.64;;;14.72;61.91
77019;BME280;66044;53.142;17.962;2023-06-14T03:34:27;101245.85;;;14.71;62.14
77019;BME280;66044;53.142;17.962;2023-06-14T03:36:54;101247.94;;;14.71;62.09
77019;BME280;66044;53.142;17.962;2023-06-14T03:39:20;101250.42;;;14.72;62.08
77019;BME280;66044;53.142;17.962;2023-06-14T03:41:47;101250.58;;;14.72;62.20
77019;BME280;66044;53.142;17.962;2023-06-14T03:44:17;101253.55;;;14.73;62.11
77019;BME280;66044;53.142;17.962;2023-06-14T03:46:45;101254.79;;;14.74;62.08
77019;BME280;66044;53.142;17.962;2023-06-14T03:49:13;101257.16;;;14.76;62.18
77019;BME280;66044;53.142;17.962;2023-06-14T03:51:39;101257.85;;;14.77;62.20
77019;BME280;66044;53.142;17.962;2023-06-14T03:54:06;101254.88;;;14.79;62.11
77019;BME280;66044;53.142;17.962;2023-06-14T03:56:33;101257.74;;;14.79;62.32
77019;BME280;66044;53.142;17.962;2023-06-14T03:59:00;101260.80;;;14.80;62.23
77019;BME280;66044;53.142;17.962;2023-06-14T04:01:27;101261.54;;;14.82;62.24
77019;BME280;66044;53.142;17.962;2023-06-14T04:03:56;101262.35;;;14.83;62.23
77019;BME280;66044;53.142;17.962;2023-06-14T04:06:24;101266.55;;;14.86;62.28
77019;BME280;66044;53.142;17.962;2023-06-14T04:12:34;101272.36;;;14.94;62.19
77019;BME280;66044;53.142;17.962;2023-06-14T04:15:01;101269.58;;;14.96;62.15
77019;BME280;66044;53.142;17.962;2023-06-14T04:17:28;101271.46;;;15.00;62.06
77019;BME280;66044;53.142;17.962;2023-06-14T04:19:54;101269.92;;;15.03;62.05
77019;BME280;66044;53.142;17.962;2023-06-14T04:22:21;101271.10;;;15.03;62.21
77019;BME280;66044;53.142;17.962;2023-06-14T04:24:47;101278.67;;;14.99;62.56
77019;BME280;66044;53.142;17.962;2023-06-14T04:27:15;101278.63;;;14.94;62.50
77019;BME280;66044;53.142;17.962;2023-06-14T04:29:47;101281.39;;;14.94;62.64
77019;BME280;66044;53.142;17.962;2023-06-14T04:32:19;101284.40;;;14.99;62.93
77019;BME280;66044;53.142;17.962;2023-06-14T04:34:46;101281.05;;;15.05;62.74
77019;BME280;66044;53.142;17.962;2023-06-14T04:37:13;101278.27;;;15.13;62.64
77019;BME280;66044;53.142;17.962;2023-06-14T04:39:40;101278.21;;;15.22;62.56
77019;BME280;66044;53.142;17.962;2023-06-14T04:42:08;101276.30;;;15.30;62.38
77019;BME280;66044;53.142;17.962;2023-06-14T04:44:37;101273.86;;;15.37;62.19
77019;BME280;66044;53.142;17.962;2023-06-14T04:47:06;101277.63;;;15.44;62.00
77019;BME280;66044;53.142;17.962;2023-06-14T04:49:33;101279.48;;;15.51;61.57
77019;BME280;66044;53.142;17.962;2023-06-14T04:52:00;101277.41;;;15.60;61.48
77019;BME280;66044;53.142;17.962;2023-06-14T04:54:29;101280.93;;;15.70;61.52
77019;BME280;66044;53.142;17.962;2023-06-14T04:56:57;101278.91;;;15.80;61.23
77019;BME280;66044;53.142;17.962;2023-06-14T04:59:24;101277.33;;;15.88;60.96
77019;BME280;66044;53.142;17.962;2023-06-14T05:01:51;101282.09;;;15.95;60.69
77019;BME280;66044;53.142;17.962;2023-06-14T05:04:20;101277.84;;;16.01;60.33
77019;BME280;66044;53.142;17.962;2023-06-14T05:06:47;101271.73;;;16.07;60.35
77019;BME280;66044;53.142;17.962;2023-06-14T05:09:15;101274.60;;;16.13;60.09
77019;BME280;66044;53.142;17.962;2023-06-14T05:11:43;101277.64;;;16.17;59.79
77019;BME280;66044;53.142;17.962;2023-06-14T05:14:14;101275.91;;;16.22;59.62
77019;BME280;66044;53.142;17.962;2023-06-14T05:16:40;101273.18;;;16.28;59.68
77019;BME280;66044;53.142;17.962;2023-06-14T05:19:13;101270.74;;;16.33;59.38
77019;BME280;66044;53.142;17.962;2023-06-14T05:21:40;101270.81;;;16.38;59.29
77019;BME280;66044;53.142;17.962;2023-06-14T05:24:07;101264.95;;;16.43;59.22
77019;BME280;66044;53.142;17.962;2023-06-14T05:26:35;101263.96;;;16.46;59.16
77019;BME280;66044;53.142;17.962;2023-06-14T05:29:02;101274.75;;;16.50;58.72
77019;BME280;66044;53.142;17.962;2023-06-14T05:31:30;101296.38;;;16.57;58.96
77019;BME280;66044;53.142;17.962;2023-06-14T05:34:04;101303.52;;;16.66;58.72
77019;BME280;66044;53.142;17.962;2023-06-14T05:36:30;101308.25;;;16.69;58.91
77019;BME280;66044;53.142;17.962;2023-06-14T05:38:57;101301.42;;;16.69;58.74
77019;BME280;66044;53.142;17.962;2023-06-14T05:41:27;101293.59;;;16.68;58.61
77019;BME280;66044;53.142;17.962;2023-06-14T05:43:54;101295.80;;;16.70;58.59
77019;BME280;66044;53.142;17.962;2023-06-14T05:46:24;101287.44;;;16.71;58.45
77019;BME280;66044;53.142;17.962;2023-06-14T05:48:52;101278.25;;;16.72;58.45
77019;BME280;66044;53.142;17.962;2023-06-14T05:51:19;101265.23;;;16.76;58.35
77019;BME280;66044;53.142;17.962;2023-06-14T05:53:46;101263.30;;;16.83;58.55
77019;BME280;66044;53.142;17.962;2023-06-14T05:56:14;101268.63;;;16.96;58.23
77019;BME280;66044;53.142;17.962;2023-06-14T05:58:44;101268.24;;;17.13;58.02
77019;BME280;66044;53.142;17.962;2023-06-14T06:01:11;101264.73;;;17.33;57.74
77019;BME280;66044;53.142;17.962;2023-06-14T06:03:37;101264.74;;;17.57;57.41
77019;BME280;66044;53.142;17.962;2023-06-14T06:06:04;101257.61;;;17.90;56.74
77019;BME280;66044;53.142;17.962;2023-06-14T06:08:33;101251.44;;;18.41;56.20
77019;BME280;66044;53.142;17.962;2023-06-14T06:10:59;101255.15;;;19.05;55.15
77019;BME280;66044;53.142;17.962;2023-06-14T06:13:28;101256.30;;;19.65;54.20
77019;BME280;66044;53.142;17.962;2023-06-14T06:15:54;101265.38;;;20.06;53.17
77019;BME280;66044;53.142;17.962;2023-06-14T06:18:20;101271.23;;;20.32;52.02
77019;BME280;66044;53.142;17.962;2023-06-14T06:20:47;101271.09;;;20.59;51.36
77019;BME280;66044;53.142;17.962;2023-06-14T06:23:13;101280.59;;;20.91;50.60
77019;BME280;66044;53.142;17.962;2023-06-14T06:25:40;101287.91;;;21.29;49.63
77019;BME280;66044;53.142;17.962;2023-06-14T06:28:07;101288.45;;;21.88;48.78
77019;BME280;66044;53.142;17.962;2023-06-14T06:30:33;101287.07;;;22.44;47.78
77019;BME280;66044;53.142;17.962;2023-06-14T06:33:00;101287.45;;;22.68;46.77
77019;BME280;66044;53.142;17.962;2023-06-14T06:35:27;101288.23;;;22.95;46.03
77019;BME280;66044;53.142;17.962;2023-06-14T06:37:53;101289.67;;;23.58;45.05
77019;BME280;66044;53.142;17.962;2023-06-14T06:40:19;101297.16;;;24.19;44.06
77019;BME280;66044;53.142;17.962;2023-06-14T06:42:46;101302.65;;;24.98;42.81
77019;BME280;66044;53.142;17.962;2023-06-14T06:45:13;101302.96;;;24.96;42.35
77019;BME280;66044;53.142;17.962;2023-06-14T06:47:39;101299.30;;;24.76;42.04
77019;BME280;66044;53.142;17.962;2023-06-14T06:50:07;101298.25;;;24.44;42.06
77019;BME280;66044;53.142;17.962;2023-06-14T06:52:34;101298.60;;;24.05;42.21
77019;BME280;66044;53.142;17.962;2023-06-14T06:55:00;101301.72;;;23.65;42.34
77019;BME280;66044;53.142;17.962;2023-06-14T06:57:28;101305.45;;;23.27;42.40
77019;BME280;66044;53.142;17.962;2023-06-14T06:59:55;101309.52;;;22.88;42.83
77019;BME280;66044;53.142;17.962;2023-06-14T07:02:22;101317.59;;;22.57;43.12
77019;BME280;66044;53.142;17.962;2023-06-14T07:04:48;101313.17;;;22.28;43.50
77019;BME280;66044;53.142;17.962;2023-06-14T07:07:15;101310.38;;;21.99;43.92
77019;BME280;66044;53.142;17.962;2023-06-14T07:09:41;101314.60;;;21.75;44.20
77019;BME280;66044;53.142;17.962;2023-06-14T07:12:09;101306.42;;;21.58;44.61
77019;BME280;66044;53.142;17.962;2023-06-14T07:14:35;101308.93;;;21.43;44.93
77019;BME280;66044;53.142;17.962;2023-06-14T07:17:01;101314.72;;;21.32;44.93
77019;BME280;66044;53.142;17.962;2023-06-14T07:19:28;101315.66;;;21.19;45.05
77019;BME280;66044;53.142;17.962;2023-06-14T07:21:54;101312.92;;;21.08;45.17
77019;BME280;66044;53.142;17.962;2023-06-14T07:24:21;101316.39;;;21.00;45.42
77019;BME280;66044;53.142;17.962;2023-06-14T07:26:47;101316.25;;;20.93;45.56
77019;BME280;66044;53.142;17.962;2023-06-14T07:29:17;101319.05;;;20.88;45.60
77019;BME280;66044;53.142;17.962;2023-06-14T07:31:43;101320.05;;;20.87;45.57
77019;BME280;66044;53.142;17.962;2023-06-14T07:34:10;101321.81;;;20.83;45.65
77019;BME280;66044;53.142;17.962;2023-06-14T07:36:37;101323.35;;;20.80;45.70
77019;BME280;66044;53.142;17.962;2023-06-14T07:39:04;101320.56;;;20.84;45.72
77019;BME280;66044;53.142;17.962;2023-06-14T07:41:33;101315.08;;;20.91;45.70
77019;BME280;66044;53.142;17.962;2023-06-14T07:44:00;101313.05;;;21.01;45.74
77019;BME280;66044;53.142;17.962;2023-06-14T07:46:26;101314.19;;;21.10;45.70
77019;BME280;66044;53.142;17.962;2023-06-14T07:48:53;101312.89;;;21.15;45.58
77019;BME280;66044;53.142;17.962;2023-06-14T07:51:19;101301.39;;;21.18;45.57
77019;BME280;66044;53.142;17.962;2023-06-14T07:53:48;101296.10;;;21.20;45.83
77019;BME280;66044;53.142;17.962;2023-06-14T07:56:14;101294.15;;;21.23;45.81
77019;BME280;66044;53.142;17.962;2023-06-14T07:58:41;101296.46;;;21.33;45.54
77019;BME280;66044;53.142;17.962;2023-06-14T08:01:09;101299.89;;;21.48;45.47
77019;BME280;66044;53.142;17.962;2023-06-14T08:03:40;101304.48;;;21.63;45.09
77019;BME280;66044;53.142;17.962;2023-06-14T08:06:07;101299.20;;;21.73;44.76
77019;BME280;66044;53.142;17.962;2023-06-14T08:08:33;101295.95;;;21.81;44.62
77019;BME280;66044;53.142;17.962;2023-06-14T08:11:00;101293.23;;;21.86;44.50
77019;BME280;66044;53.142;17.962;2023-06-14T08:13:27;101293.18;;;21.95;44.43
77019;BME280;66044;53.142;17.962;2023-06-14T08:15:54;101293.30;;;22.06;44.34
77019;BME280;66044;53.142;17.962;2023-06-14T08:18:23;101297.38;;;22.19;43.95
77019;BME280;66044;53.142;17.962;2023-06-14T08:20:50;101298.71;;;22.28;43.84
77019;BME280;66044;53.142;17.962;2023-06-14T08:23:16;101299.90;;;22.32;43.59
77019;BME280;66044;53.142;17.962;2023-06-14T08:25:45;101301.84;;;22.34;43.40
77019;BME280;66044;53.142;17.962;2023-06-14T08:28:11;101305.61;;;22.37;43.02
77019;BME280;66044;53.142;17.962;2023-06-14T08:30:38;101308.90;;;22.42;42.83
77019;BME280;66044;53.142;17.962;2023-06-14T08:33:05;101307.71;;;22.43;42.83
77019;BME280;66044;53.142;17.962;2023-06-14T08:35:32;101305.77;;;22.40;42.57
77019;BME280;66044;53.142;17.962;2023-06-14T08:37:59;101302.49;;;22.39;42.51
77019;BME280;66044;53.142;17.962;2023-06-14T08:40:26;101298.95;;;22.38;42.49
77019;BME280;66044;53.142;17.962;2023-06-14T08:42:56;101297.08;;;22.41;42.64
77019;BME280;66044;53.142;17.962;2023-06-14T08:45:24;101297.46;;;22.43;42.51
77019;BME280;66044;53.142;17.962;2023-06-14T08:47:51;101301.38;;;22.42;42.38
77019;BME280;66044;53.142;17.962;2023-06-14T08:50:21;101299.84;;;22.39;42.41
77019;BME280;66044;53.142;17.962;2023-06-14T08:52:54;101302.25;;;22.39;42.41
77019;BME280;66044;53.142;17.962;2023-06-14T08:55:24;101304.42;;;22.38;42.45
77019;BME280;66044;53.142;17.962;2023-06-14T08:57:55;101306.70;;;22.32;42.46
77019;BME280;66044;53.142;17.962;2023-06-14T09:00:25;101307.56;;;22.31;42.47
77019;BME280;66044;53.142;17.962;2023-06-14T09:02:53;101309.51;;;22.31;42.39
77019;BME280;66044;53.142;17.962;2023-06-14T09:05:25;101313.05;;;22.46;42.47
77019;BME280;66044;53.142;17.962;2023-06-14T09:07:52;101311.17;;;22.69;42.36
77019;BME280;66044;53.142;17.962;2023-06-14T09:10:20;101309.05;;;22.93;42.17
77019;BME280;66044;53.142;17.962;2023-06-14T09:12:47;101311.20;;;23.13;41.61
77019;BME280;66044;53.142;17.962;2023-06-14T09:15:14;101315.23;;;23.31;41.14
77019;BME280;66044;53.142;17.962;2023-06-14T09:17:41;101317.67;;;23.50;40.73
77019;BME280;66044;53.142;17.962;2023-06-14T09:20:08;101316.78;;;23.63;40.54
77019;BME280;66044;53.142;17.962;2023-06-14T09:22:45;101320.92;;;23.66;40.28
77019;BME280;66044;53.142;17.962;2023-06-14T09:25:12;101322.31;;;23.69;40.11
77019;BME280;66044;53.142;17.962;2023-06-14T09:27:42;101320.69;;;23.66;40.15
77019;BME280;66044;53.142;17.962;2023-06-14T09:30:09;101321.15;;;23.42;40.11
77019;BME280;66044;53.142;17.962;2023-06-14T09:32:37;101320.27;;;23.17;40.32
77019;BME280;66044;53.142;17.962;2023-06-14T09:35:06;101317.77;;;23.18;40.55
77019;BME280;66044;53.142;17.962;2023-06-14T09:37:33;101316.19;;;23.19;40.66
77019;BME280;66044;53.142;17.962;2023-06-14T09:40:00;101318.55;;;23.15;40.94
77019;BME280;66044;53.142;17.962;2023-06-14T09:42:27;101318.73;;;23.10;40.74
77019;BME280;66044;53.142;17.962;2023-06-14T09:44:56;101314.60;;;23.05;40.85
77019;BME280;66044;53.142;17.962;2023-06-14T09:47:24;101313.95;;;23.10;40.93
77019;BME280;66044;53.142;17.962;2023-06-14T09:49:51;101309.93;;;23.18;40.71
77019;BME280;66044;53.142;17.962;2023-06-14T09:52:19;101308.19;;;23.26;40.55
77019;BME280;66044;53.142;17.962;2023-06-14T09:54:48;101311.20;;;23.44;40.33
77019;BME280;66044;53.142;17.962;2023-06-14T09:57:22;101307.77;;;23.60;40.30
77019;BME280;66044;53.142;17.962;2023-06-14T09:59:52;101305.77;;;23.85;40.00
77019;BME280;66044;53.142;17.962;2023-06-14T10:02:28;101304.87;;;24.06;39.61
77019;BME280;66044;53.142;17.962;2023-06-14T10:05:07;101302.44;;;24.32;39.52
77019;BME280;66044;53.142;17.962;2023-06-14T10:07:40;101303.66;;;24.64;39.15
77019;BME280;66044;53.142;17.962;2023-06-14T10:10:08;101299.77;;;24.87;38.63
77019;BME280;66044;53.142;17.962;2023-06-14T10:12:36;101296.37;;;25.06;38.41
77019;BME280;66044;53.142;17.962;2023-06-14T10:15:03;101290.37;;;25.22;37.86
77019;BME280;66044;53.142;17.962;2023-06-14T10:17:49;101291.48;;;25.41;37.57
77019;BME280;66044;53.142;17.962;2023-06-14T10:22:53;101290.81;;;25.69;37.21
77019;BME280;66044;53.142;17.962;2023-06-14T10:25:29;101287.81;;;25.83;36.84
77019;BME280;66044;53.142;17.962;2023-06-14T10:30:38;101287.73;;;26.10;36.63
77019;BME280;66044;53.142;17.962;2023-06-14T10:33:08;101287.59;;;26.25;36.42
77019;BME280;66044;53.142;17.962;2023-06-14T10:35:36;101282.80;;;26.24;35.74
77019;BME280;66044;53.142;17.962;2023-06-14T10:38:07;101282.23;;;26.14;35.74
77019;BME280;66044;53.142;17.962;2023-06-14T10:40:34;101279.11;;;26.01;35.74
77019;BME280;66044;53.142;17.962;2023-06-14T10:43:01;101272.98;;;25.86;35.53
77019;BME280;66044;53.142;17.962;2023-06-14T10:46:13;101271.09;;;25.64;35.65
77019;BME280;66044;53.142;17.962;2023-06-14T10:48:41;101262.33;;;25.41;35.81
77019;BME280;66044;53.142;17.962;2023-06-14T10:51:18;101266.21;;;25.44;36.26
77019;BME280;66044;53.142;17.962;2023-06-14T10:53:50;101263.18;;;25.54;36.08
77019;BME280;66044;53.142;17.962;2023-06-14T10:56:30;101257.99;;;25.54;35.83
77019;BME280;66044;53.142;17.962;2023-06-14T10:58:57;101253.70;;;25.38;35.55
77019;BME280;66044;53.142;17.962;2023-06-14T11:01:40;101253.59;;;25.15;35.21
77019;BME280;66044;53.142;17.962;2023-06-14T11:04:10;101250.55;;;24.83;35.07
77019;BME280;66044;53.142;17.962;2023-06-14T11:06:47;101251.63;;;24.62;35.71
77019;BME280;66044;53.142;17.962;2023-06-14T11:12:02;101245.80;;;24.95;35.45
77019;BME280;66044;53.142;17.962;2023-06-14T11:14:30;101241.28;;;25.00;35.41
77019;BME280;66044;53.142;17.962;2023-06-14T11:16:57;101238.95;;;25.12;35.36
77019;BME280;66044;53.142;17.962;2023-06-14T11:19:24;101240.60;;;25.25;35.52
77019;BME280;66044;53.142;17.962;2023-06-14T11:21:51;101240.81;;;25.32;35.34
77019;BME280;66044;53.142;17.962;2023-06-14T11:24:17;101236.91;;;25.41;35.12
77019;BME280;66044;53.142;17.962;2023-06-14T11:26:44;101239.04;;;25.41;34.82
77019;BME280;66044;53.142;17.962;2023-06-14T11:29:11;101240.38;;;25.29;34.81
77019;BME280;66044;53.142;17.962;2023-06-14T11:31:43;101236.27;;;25.18;34.87
77019;BME280;66044;53.142;17.962;2023-06-14T11:34:10;101240.67;;;25.18;35.06
77019;BME280;66044;53.142;17.962;2023-06-14T11:36:36;101238.48;;;25.05;34.90
77019;BME280;66044;53.142;17.962;2023-06-14T11:39:06;101237.98;;;24.91;34.80
77019;BME280;66044;53.142;17.962;2023-06-14T11:41:36;101232.33;;;24.76;35.07
77019;BME280;66044;53.142;17.962;2023-06-14T11:44:04;101240.13;;;24.66;35.17
77019;BME280;66044;53.142;17.962;2023-06-14T11:46:30;101238.69;;;24.45;35.06
77019;BME280;66044;53.142;17.962;2023-06-14T11:48:57;101236.65;;;24.26;35.32
77019;BME280;66044;53.142;17.962;2023-06-14T11:51:24;101237.15;;;24.33;35.27
77019;BME280;66044;53.142;17.962;2023-06-14T11:53:51;101233.48;;;24.39;35.43
77019;BME280;66044;53.142;17.962;2023-06-14T11:56:18;101232.80;;;24.45;35.36
77019;BME280;66044;53.142;17.962;2023-06-14T11:58:44;101232.62;;;24.48;35.16
77019;BME280;66044;53.142;17.962;2023-06-14T12:01:16;101229.93;;;24.41;35.06
77019;BME280;66044;53.142;17.962;2023-06-14T12:03:50;101232.13;;;24.21;35.24
77019;BME280;66044;53.142;17.962;2023-06-14T12:06:26;101232.45;;;23.98;36.33
77019;BME280;66044;53.142;17.962;2023-06-14T12:08:56;101229.14;;;23.79;37.07
77019;BME280;66044;53.142;17.962;2023-06-14T12:11:22;101229.07;;;23.63;37.63
77019;BME280;66044;53.142;17.962;2023-06-14T12:13:49;101225.95;;;23.40;37.91
77019;BME280;66044;53.142;17.962;2023-06-14T12:16:15;101221.34;;;23.22;38.04
77019;BME280;66044;53.142;17.962;2023-06-14T12:18:42;101219.17;;;23.15;38.51
77019;BME280;66044;53.142;17.962;2023-06-14T12:21:09;101221.77;;;23.10;38.65
77019;BME280;66044;53.142;17.962;2023-06-14T12:23:47;101220.55;;;23.04;38.75
77019;BME280;66044;53.142;17.962;2023-06-14T12:26:16;101223.70;;;22.95;39.09
77019;BME280;66044;53.142;17.962;2023-06-14T12:28:44;101220.90;;;22.90;39.26
77019;BME280;66044;53.142;17.962;2023-06-14T12:31:12;101223.18;;;22.86;39.41
77019;BME280;66044;53.142;17.962;2023-06-14T12:33:40;101223.83;;;22.79;39.66
77019;BME280;66044;53.142;17.962;2023-06-14T12:36:09;101227.58;;;22.71;39.66
77019;BME280;66044;53.142;17.962;2023-06-14T12:38:37;101223.20;;;22.60;39.73
77019;BME280;66044;53.142;17.962;2023-06-14T12:41:03;101225.65;;;22.51;39.82
77019;BME280;66044;53.142;17.962;2023-06-14T12:43:30;101226.67;;;22.47;39.89
77019;BME280;66044;53.142;17.962;2023-06-14T12:45:56;101229.57;;;22.44;40.24
77019;BME280;66044;53.142;17.962;2023-06-14T12:48:23;101229.02;;;22.41;40.53
77019;BME280;66044;53.142;17.962;2023-06-14T12:50:50;101234.82;;;22.35;40.74
77019;BME280;66044;53.142;17.962;2023-06-14T12:53:16;101235.84;;;22.25;40.25
77019;BME280;66044;53.142;17.962;2023-06-14T12:55:43;101236.61;;;22.12;39.42
77019;BME280;66044;53.142;17.962;2023-06-14T12:58:10;101240.91;;;21.99;39.18